Time,TemperatureF,DewpointF,PressureIn,WindDirection,WindDirectionDegrees,WindSpeedMPH,WindSpeedGustMPH,Humidity,HourlyPrecipIn,Conditions,Clouds,dailyrainin,SolarRadiationWatts/m^2,SoftwareType,DateUTC
2013-10-13 00:03:00,-999.0,-99.9,-100.00,NNE,22,1.0,4.0,-999,-99.99,,,-99.99,0.000000,,2013-10-13 04:03:00,
2013-10-13 00:43:00,59.0,57.0,-100.00,SE,125,2.0,5.0,92,0.00,,,0.24,0.000000,,2013-10-13 04:43:00,
2013-10-13 00:54:00,59.0,57.0,-100.00,SE,125,2.0,5.0,92,0.00,,,0.24,0.000000,,2013-10-13 04:54:00,
2013-10-13 01:04:00,59.0,57.0,-100.00,SE,125,2.0,5.0,92,0.00,,,0.24,0.000000,,2013-10-13 05:04:00,
2013-10-13 01:12:00,59.0,57.0,-100.00,SE,125,2.0,5.0,92,0.00,,,0.24,0.000000,,2013-10-13 05:12:00,
2013-10-13 01:43:00,58.0,57.0,-100.00,NNW,327,2.0,5.0,98,0.10,,,0.24,0.000000,,2013-10-13 05:43:00,
2013-10-13 01:52:00,58.0,57.0,-100.00,NNW,327,2.0,5.0,98,0.10,,,0.24,0.000000,,2013-10-13 05:52:00,
2013-10-13 02:02:00,58.0,57.0,-100.00,NNW,327,2.0,5.0,98,0.10,,,0.24,0.000000,,2013-10-13 06:02:00,
2013-10-13 02:12:00,58.0,57.0,-100.00,NNW,327,2.0,5.0,98,0.10,,,0.24,0.000000,,2013-10-13 06:12:00,
2013-10-13 02:42:00,58.0,58.0,-100.00,North,3,6.0,12.0,100,0.06,,,0.28,0.000000,,2013-10-13 06:42:00,
2013-10-13 02:52:00,58.0,58.0,-100.00,North,3,6.0,12.0,100,0.06,,,0.28,0.000000,,2013-10-13 06:52:00,
2013-10-13 03:02:00,58.0,58.0,-100.00,North,3,6.0,12.0,100,0.06,,,0.28,0.000000,,2013-10-13 07:02:00,
2013-10-13 03:11:00,58.0,58.0,-100.00,North,3,6.0,12.0,100,0.06,,,0.28,0.000000,,2013-10-13 07:11:00,
2013-10-13 03:42:00,57.0,57.0,-100.00,NNE,12,5.0,11.0,99,0.02,,,0.27,0.000000,,2013-10-13 07:42:00,
2013-10-13 03:52:00,57.0,57.0,-100.00,NNE,12,5.0,11.0,99,0.02,,,0.27,0.000000,,2013-10-13 07:52:00,
2013-10-13 04:02:00,57.0,57.0,-100.00,NNE,12,5.0,11.0,99,0.02,,,0.27,0.000000,,2013-10-13 08:02:00,
2013-10-13 04:12:00,57.0,57.0,-100.00,NNE,12,5.0,11.0,99,0.02,,,0.27,0.000000,,2013-10-13 08:12:00,
2013-10-13 04:42:00,56.0,56.0,-100.00,North,7,6.0,10.0,99,0.01,,,0.28,0.000000,,2013-10-13 08:42:00,
2013-10-13 04:52:00,56.0,56.0,-100.00,North,7,6.0,10.0,99,0.01,,,0.28,0.000000,,2013-10-13 08:52:00,
2013-10-13 05:02:00,56.0,56.0,-100.00,North,7,6.0,10.0,99,0.01,,,0.28,0.000000,,2013-10-13 09:02:00,
2013-10-13 05:12:00,56.0,56.0,-100.00,North,7,6.0,10.0,99,0.01,,,0.28,0.000000,,2013-10-13 09:12:00,
2013-10-13 05:13:00,57.0,56.0,-100.00,NNW,338,5.0,9.0,98,0.00,,,0.26,0.000000,,2013-10-13 09:13:00,
2013-10-13 05:43:00,57.0,56.0,-100.00,NNW,338,5.0,9.0,98,0.00,,,0.26,0.000000,,2013-10-13 09:43:00,
2013-10-13 05:53:00,57.0,56.0,-100.00,NNW,338,5.0,9.0,98,0.00,,,0.26,0.000000,,2013-10-13 09:53:00,
2013-10-13 06:03:00,57.0,56.0,-100.00,NNW,338,5.0,9.0,98,0.00,,,0.26,0.000000,,2013-10-13 10:03:00,
2013-10-13 06:43:00,57.0,56.0,-100.00,North,9,5.0,10.0,98,0.00,,,0.23,0.000000,,2013-10-13 10:43:00,
2013-10-13 06:53:00,57.0,56.0,-100.00,North,9,5.0,10.0,98,0.00,,,0.23,0.000000,,2013-10-13 10:53:00,
2013-10-13 07:03:00,57.0,56.0,-100.00,North,9,5.0,10.0,98,0.00,,,0.23,0.000000,,2013-10-13 11:03:00,
2013-10-13 07:12:00,57.0,56.0,-100.00,North,9,5.0,10.0,98,0.00,,,0.23,0.000000,,2013-10-13 11:12:00,
2013-10-13 07:42:00,57.0,57.0,-100.00,North,0,5.0,11.0,100,0.02,,,0.25,0.000000,,2013-10-13 11:42:00,
2013-10-13 07:52:00,57.0,57.0,-100.00,North,0,5.0,11.0,100,0.02,,,0.25,0.000000,,2013-10-13 11:52:00,
2013-10-13 08:02:00,57.0,57.0,-100.00,North,0,5.0,11.0,100,0.02,,,0.25,0.000000,,2013-10-13 12:02:00,
2013-10-13 08:12:00,57.0,57.0,-100.00,North,0,5.0,11.0,100,0.02,,,0.25,0.000000,,2013-10-13 12:12:00,
2013-10-13 08:42:00,57.0,57.0,-100.00,North,8,5.0,10.0,100,0.01,,,0.26,2.000000,,2013-10-13 12:42:00,
2013-10-13 08:52:00,57.0,57.0,-100.00,North,8,5.0,10.0,100,0.01,,,0.26,2.000000,,2013-10-13 12:52:00,
2013-10-13 09:02:00,57.0,57.0,-100.00,North,8,5.0,10.0,100,0.01,,,0.26,2.000000,,2013-10-13 13:02:00,
2013-10-13 09:12:00,57.0,57.0,-100.00,North,8,5.0,10.0,100,0.01,,,0.26,2.000000,,2013-10-13 13:12:00,
2013-10-13 09:42:00,57.0,57.0,-100.00,North,9,4.0,10.0,100,0.11,,,0.37,13.000000,,2013-10-13 13:42:00,
2013-10-13 09:52:00,57.0,57.0,-100.00,North,9,4.0,10.0,100,0.11,,,0.37,13.000000,,2013-10-13 13:52:00,
2013-10-13 10:02:00,57.0,57.0,-100.00,North,9,4.0,10.0,100,0.11,,,0.37,13.000000,,2013-10-13 14:02:00,
2013-10-13 10:11:00,57.0,57.0,-100.00,North,9,4.0,10.0,100,0.11,,,0.37,13.000000,,2013-10-13 14:11:00,
2013-10-13 10:42:00,57.0,57.0,-100.00,North,354,4.0,7.0,100,0.27,,,0.64,35.000000,,2013-10-13 14:42:00,
2013-10-13 10:52:00,57.0,57.0,-100.00,North,354,4.0,7.0,100,0.27,,,0.64,35.000000,,2013-10-13 14:52:00,
2013-10-13 11:01:00,57.0,57.0,-100.00,North,354,4.0,7.0,100,0.27,,,0.64,35.000000,,2013-10-13 15:01:00,
2013-10-13 11:12:00,57.0,57.0,-100.00,North,354,4.0,7.0,100,0.27,,,0.64,35.000000,,2013-10-13 15:12:00,
2013-10-13 11:13:00,58.0,58.0,-100.00,North,9,4.0,9.0,99,0.02,,,0.66,79.000000,,2013-10-13 15:13:00,
2013-10-13 11:43:00,58.0,58.0,-100.00,North,9,4.0,9.0,99,0.02,,,0.66,79.000000,,2013-10-13 15:43:00,
2013-10-13 11:54:00,58.0,58.0,-100.00,North,9,4.0,9.0,99,0.02,,,0.66,79.000000,,2013-10-13 15:54:00,
2013-10-13 12:03:00,58.0,58.0,-100.00,North,9,4.0,9.0,99,0.02,,,0.66,79.000000,,2013-10-13 16:03:00,
2013-10-13 12:13:00,58.0,57.0,-100.00,North,359,4.0,7.0,97,0.01,,,0.66,127.000000,,2013-10-13 16:13:00,
2013-10-13 12:43:00,58.0,57.0,-100.00,North,359,4.0,7.0,97,0.01,,,0.66,127.000000,,2013-10-13 16:43:00,
2013-10-13 12:54:00,58.0,57.0,-100.00,North,359,4.0,7.0,97,0.01,,,0.66,127.000000,,2013-10-13 16:54:00,
2013-10-13 13:03:00,58.0,57.0,-100.00,North,359,4.0,7.0,97,0.01,,,0.66,127.000000,,2013-10-13 17:03:00,
2013-10-13 13:43:00,58.0,57.0,-100.00,North,7,3.0,10.0,97,0.01,,,0.66,104.000000,,2013-10-13 17:43:00,
2013-10-13 13:53:00,58.0,57.0,-100.00,North,7,3.0,10.0,97,0.01,,,0.66,104.000000,,2013-10-13 17:53:00,
2013-10-13 14:02:00,58.0,57.0,-100.00,North,7,3.0,10.0,97,0.01,,,0.66,104.000000,,2013-10-13 18:02:00,
2013-10-13 14:12:00,58.0,57.0,-100.00,North,7,3.0,10.0,97,0.01,,,0.66,104.000000,,2013-10-13 18:12:00,
2013-10-13 14:42:00,58.0,57.0,-100.00,NE,34,4.0,6.0,98,0.00,,,0.65,83.000000,,2013-10-13 18:42:00,
2013-10-13 14:52:00,58.0,57.0,-100.00,NE,34,4.0,6.0,98,0.00,,,0.65,83.000000,,2013-10-13 18:52:00,
2013-10-13 15:02:00,58.0,57.0,-100.00,NE,34,4.0,6.0,98,0.00,,,0.65,83.000000,,2013-10-13 19:02:00,
2013-10-13 15:11:00,58.0,57.0,-100.00,NE,34,4.0,6.0,98,0.00,,,0.65,83.000000,,2013-10-13 19:11:00,
2013-10-13 15:42:00,58.0,57.0,-100.00,NE,43,3.0,7.0,96,0.02,,,0.67,82.000000,,2013-10-13 19:42:00,
2013-10-13 15:53:00,58.0,57.0,-100.00,NE,43,3.0,7.0,96,0.02,,,0.67,82.000000,,2013-10-13 19:53:00,
2013-10-13 16:02:00,58.0,57.0,-100.00,NE,43,3.0,7.0,96,0.02,,,0.67,82.000000,,2013-10-13 20:02:00,
2013-10-13 16:12:00,58.0,57.0,-100.00,NE,43,3.0,7.0,96,0.02,,,0.67,82.000000,,2013-10-13 20:12:00,
2013-10-13 16:43:00,58.0,57.0,-100.00,NE,46,4.0,6.0,97,0.00,,,0.67,69.000000,,2013-10-13 20:43:00,
2013-10-13 16:52:00,58.0,57.0,-100.00,NE,46,4.0,6.0,97,0.00,,,0.67,69.000000,,2013-10-13 20:52:00,
2013-10-13 17:03:00,58.0,57.0,-100.00,NE,46,4.0,6.0,97,0.00,,,0.67,69.000000,,2013-10-13 21:03:00,
2013-10-13 17:11:00,58.0,57.0,-100.00,NE,46,4.0,6.0,97,0.00,,,0.67,69.000000,,2013-10-13 21:11:00,
2013-10-13 17:13:00,58.0,57.0,-100.00,NNE,29,4.0,6.0,98,0.00,,,0.67,13.000000,,2013-10-13 21:13:00,
2013-10-13 17:44:00,58.0,57.0,-100.00,NNE,29,4.0,6.0,98,0.00,,,0.67,13.000000,,2013-10-13 21:44:00,
2013-10-13 17:55:00,58.0,57.0,-100.00,NNE,29,4.0,6.0,98,0.00,,,0.67,13.000000,,2013-10-13 21:55:00,
2013-10-13 18:04:00,58.0,57.0,-100.00,NNE,29,4.0,6.0,98,0.00,,,0.67,13.000000,,2013-10-13 22:04:00,
2013-10-13 18:43:00,57.0,57.0,-100.00,North,359,3.0,6.0,99,0.00,,,0.66,6.000000,,2013-10-13 22:43:00,
2013-10-13 18:53:00,57.0,57.0,-100.00,North,359,3.0,6.0,99,0.00,,,0.66,6.000000,,2013-10-13 22:53:00,
2013-10-13 19:03:00,57.0,57.0,-100.00,North,359,3.0,6.0,99,0.00,,,0.66,6.000000,,2013-10-13 23:03:00,
2013-10-13 19:12:00,57.0,57.0,-100.00,North,359,3.0,6.0,99,0.00,,,0.66,6.000000,,2013-10-13 23:12:00,
2013-10-13 19:42:00,57.0,57.0,-100.00,NNW,329,3.0,5.0,100,0.00,,,0.66,0.000000,,2013-10-13 23:42:00,
2013-10-13 19:52:00,57.0,57.0,-100.00,NNW,329,3.0,5.0,100,0.00,,,0.66,0.000000,,2013-10-13 23:52:00,
2013-10-13 20:02:00,57.0,57.0,-100.00,NNW,329,3.0,5.0,100,0.00,,,0.66,0.000000,,2013-10-14 00:02:00,
2013-10-13 20:12:00,57.0,57.0,-100.00,NNW,329,3.0,5.0,100,0.00,,,0.66,0.000000,,2013-10-14 00:12:00,
2013-10-13 20:42:00,57.0,57.0,-100.00,North,3,2.0,5.0,100,0.00,,,0.66,0.000000,,2013-10-14 00:42:00,
2013-10-13 20:52:00,57.0,57.0,-100.00,North,3,2.0,5.0,100,0.00,,,0.66,0.000000,,2013-10-14 00:52:00,
2013-10-13 21:02:00,57.0,57.0,-100.00,North,3,2.0,5.0,100,0.00,,,0.66,0.000000,,2013-10-14 01:02:00,
2013-10-13 21:11:00,57.0,57.0,-100.00,North,3,2.0,5.0,100,0.00,,,0.66,0.000000,,2013-10-14 01:11:00,
2013-10-13 21:42:00,57.0,57.0,-100.00,ENE,64,2.0,3.0,100,0.00,,,0.66,0.000000,,2013-10-14 01:42:00,
2013-10-13 21:52:00,57.0,57.0,-100.00,ENE,64,2.0,3.0,100,0.00,,,0.66,0.000000,,2013-10-14 01:52:00,
2013-10-13 22:02:00,57.0,57.0,-100.00,ENE,64,2.0,3.0,100,0.00,,,0.66,0.000000,,2013-10-14 02:02:00,
2013-10-13 22:12:00,57.0,57.0,-100.00,ENE,64,2.0,3.0,100,0.00,,,0.66,0.000000,,2013-10-14 02:12:00,
2013-10-13 22:42:00,57.0,57.0,-100.00,SE,125,1.0,3.0,100,0.00,,,0.66,0.000000,,2013-10-14 02:42:00,
2013-10-13 22:52:00,57.0,57.0,-100.00,SE,125,1.0,3.0,100,0.00,,,0.66,0.000000,,2013-10-14 02:52:00,
2013-10-13 23:03:00,57.0,57.0,-100.00,SE,125,1.0,3.0,100,0.00,,,0.66,0.000000,,2013-10-14 03:03:00,
2013-10-13 23:12:00,57.0,57.0,-100.00,SE,125,1.0,3.0,100,0.00,,,0.66,0.000000,,2013-10-14 03:12:00,
2013-10-13 23:13:00,57.0,57.0,-100.00,WSW,243,0.0,2.0,100,0.00,,,0.66,0.000000,,2013-10-14 03:13:00,
2013-10-13 23:44:00,57.0,57.0,-100.00,WSW,243,0.0,2.0,100,0.00,,,0.66,0.000000,,2013-10-14 03:44:00,
2013-10-13 23:55:00,57.0,57.0,-100.00,WSW,243,0.0,2.0,100,0.00,,,0.66,0.000000,,2013-10-14 03:55:00,